createdAt,value
2022-07-28T00:00:40.066Z,4.70
2022-07-28T00:03:21.848Z,5.50
2022-07-28T00:06:15.230Z,8.25
2022-07-28T00:08:52.786Z,4.53
2022-07-28T00:11:36.972Z,4.88
2022-07-28T00:14:14.735Z,5.03
2022-07-28T00:16:43.451Z,5.05
2022-07-28T00:19:12.931Z,4.97
2022-07-28T00:21:40.865Z,5.75
2022-07-28T00:24:27.902Z,4.93
2022-07-28T00:26:55.851Z,4.53
2022-07-28T00:29:23.695Z,7.72
2022-07-28T00:31:51.626Z,5.05
2022-07-28T00:34:20.873Z,5.18
2022-07-28T00:36:54.529Z,5.57
2022-07-28T00:39:23.001Z,8.23
2022-07-28T00:41:51.396Z,6.65
2022-07-28T00:44:19.296Z,5.43
2022-07-28T00:46:47.314Z,6.45
2022-07-28T00:49:16.063Z,5.75
2022-07-28T00:51:45.460Z,6.78
2022-07-28T00:54:13.823Z,6.82
2022-07-28T00:56:41.998Z,6.50
2022-07-28T00:59:10.106Z,6.68
2022-07-28T01:01:38.144Z,6.22
2022-07-28T01:04:07.118Z,6.43
2022-07-28T01:07:03.935Z,5.63
2022-07-28T01:09:42.995Z,5.68
2022-07-28T01:12:19.546Z,5.80
2022-07-28T01:14:51.092Z,6.50
2022-07-28T01:17:27.333Z,6.38
2022-07-28T01:20:05.690Z,7.40
2022-07-28T01:22:40.857Z,7.65
2022-07-28T01:25:19.568Z,9.98
2022-07-28T01:28:03.859Z,6.22
2022-07-28T01:30:40.141Z,6.50
2022-07-28T01:33:16.118Z,7.32
2022-07-28T01:35:47.385Z,6.90
2022-07-28T01:38:20.441Z,7.73
2022-07-28T01:40:50.276Z,7.50
2022-07-28T01:43:23.610Z,6.50
2022-07-28T01:45:55.952Z,7.03
2022-07-28T01:48:26.055Z,7.47
2022-07-28T01:50:55.742Z,7.05
2022-07-28T01:53:25.658Z,8.80
2022-07-28T01:55:54.547Z,6.93
2022-07-28T01:58:24.500Z,9.10
2022-07-28T02:00:54.886Z,7.00
2022-07-28T02:03:25.162Z,8.75
2022-07-28T02:05:55.853Z,6.32
2022-07-28T02:08:26.141Z,6.72
2022-07-28T02:11:15.168Z,8.43
2022-07-28T02:13:43.551Z,6.75
2022-07-28T02:16:15.431Z,6.93
2022-07-28T02:18:44.974Z,8.85
2022-07-28T02:21:14.237Z,7.60
2022-07-28T02:23:46.294Z,7.00
2022-07-28T02:26:16.067Z,8.25
2022-07-28T02:28:51.297Z,7.32
2022-07-28T02:31:26.913Z,7.78
2022-07-28T02:34:02.258Z,7.93
2022-07-28T02:36:33.608Z,9.75
2022-07-28T02:39:07.492Z,8.32
2022-07-28T02:41:45.020Z,7.78
2022-07-28T02:44:19.021Z,8.18
2022-07-28T02:46:52.609Z,8.05
2022-07-28T02:49:25.702Z,9.57
2022-07-28T02:51:54.670Z,8.18
2022-07-28T02:54:24.118Z,9.13
2022-07-28T02:56:55.155Z,9.05
2022-07-28T02:59:24.344Z,8.95
2022-07-28T03:01:54.306Z,8.30
2022-07-28T03:04:37.314Z,8.57
2022-07-28T03:07:05.852Z,10.40
2022-07-28T03:09:39.933Z,10.00
2022-07-28T03:12:08.450Z,11.00
2022-07-28T03:14:36.295Z,9.05
2022-07-28T03:17:05.757Z,9.25
2022-07-28T03:19:33.965Z,10.25
2022-07-28T03:22:02.235Z,11.02
2022-07-28T03:24:34.896Z,9.52
2022-07-28T03:27:07.883Z,11.85
2022-07-28T03:29:36.656Z,10.48
2022-07-28T03:32:07.342Z,9.73
2022-07-28T03:34:36.351Z,10.27
2022-07-28T03:37:11.057Z,10.05
2022-07-28T03:39:41.779Z,10.68
2022-07-28T03:42:10.614Z,10.73
2022-07-28T03:44:39.567Z,9.38
2022-07-28T03:47:08.851Z,11.25
2022-07-28T03:49:36.786Z,10.95
2022-07-28T03:52:04.671Z,11.05
2022-07-28T03:54:32.502Z,11.05
2022-07-28T03:57:00.285Z,12.40
2022-07-28T03:59:28.106Z,10.27
2022-07-28T04:01:57.104Z,10.00
2022-07-28T04:04:27.594Z,11.65
2022-07-28T04:06:55.403Z,11.63
2022-07-28T04:09:24.102Z,11.73
2022-07-28T04:11:51.914Z,10.80
2022-07-28T04:14:19.921Z,10.38
2022-07-28T04:16:47.947Z,12.93
2022-07-28T04:19:16.234Z,14.43
2022-07-28T04:21:45.524Z,11.98
2022-07-28T04:24:13.684Z,12.23
2022-07-28T04:29:12.122Z,11.68
2022-07-28T04:31:39.928Z,12.05
2022-07-28T04:34:07.717Z,12.85
2022-07-28T04:36:41.728Z,11.63
2022-07-28T04:39:12.008Z,10.52
2022-07-28T04:41:41.703Z,11.18
2022-07-28T04:44:12.031Z,10.70
2022-07-28T04:46:40.177Z,16.80
2022-07-28T04:49:08.247Z,16.05
2022-07-28T04:51:37.063Z,14.75
2022-07-28T04:54:04.991Z,14.75
2022-07-28T04:56:34.145Z,16.80
2022-07-28T04:59:02.667Z,19.00
2022-07-28T05:01:32.644Z,26.70
2022-07-28T05:04:00.500Z,17.40
2022-07-28T05:06:28.319Z,14.80
2022-07-28T05:08:56.092Z,19.00
2022-07-28T05:11:23.918Z,13.30
2022-07-28T05:13:53.189Z,17.15
2022-07-28T05:16:21.296Z,10.63
2022-07-28T05:18:49.207Z,14.93
2022-07-28T05:21:17.029Z,11.82
2022-07-28T05:23:50.476Z,9.25
2022-07-28T05:26:18.348Z,13.20
2022-07-28T05:28:46.152Z,9.30
2022-07-28T05:31:15.908Z,9.95
2022-07-28T05:33:43.713Z,13.98
2022-07-28T05:36:12.866Z,8.88
2022-07-28T05:38:40.704Z,11.43
2022-07-28T05:41:08.501Z,10.27
2022-07-28T05:43:37.897Z,9.52
2022-07-28T05:46:05.976Z,13.35
2022-07-28T05:48:35.275Z,10.43
2022-07-28T05:51:04.025Z,11.80
2022-07-28T05:53:31.815Z,9.07
2022-07-28T05:56:01.543Z,11.63
2022-07-28T05:58:30.870Z,9.35
2022-07-28T06:01:00.713Z,9.18
2022-07-28T06:03:30.436Z,10.85
2022-07-28T06:06:15.326Z,11.80
2022-07-28T06:08:44.759Z,8.48
2022-07-28T06:11:22.024Z,8.82
2022-07-28T06:13:51.460Z,8.45
2022-07-28T06:16:20.747Z,12.98
2022-07-28T06:18:48.874Z,10.23
2022-07-28T06:21:18.104Z,9.52
2022-07-28T06:23:46.174Z,8.00
2022-07-28T06:26:14.081Z,10.10
2022-07-28T06:28:41.867Z,8.43
2022-07-28T06:31:09.768Z,7.20
2022-07-28T06:33:37.932Z,12.07
2022-07-28T06:36:05.958Z,7.80
2022-07-28T06:38:35.148Z,10.48
2022-07-28T06:41:02.988Z,9.63
2022-07-28T06:43:31.036Z,9.13
2022-07-28T06:45:58.874Z,7.68
2022-07-28T06:48:29.247Z,8.57
2022-07-28T06:50:59.598Z,10.00
2022-07-28T06:53:32.408Z,7.10
2022-07-28T06:56:04.160Z,8.55
2022-07-28T06:58:32.225Z,8.73
2022-07-28T07:01:00.103Z,8.20
2022-07-28T07:03:28.081Z,9.52
2022-07-28T07:05:56.047Z,8.88
2022-07-28T07:08:23.864Z,8.43
2022-07-28T07:10:51.835Z,7.35
2022-07-28T07:13:21.100Z,8.25
2022-07-28T07:15:48.926Z,8.63
2022-07-28T07:18:17.176Z,8.75
2022-07-28T07:20:45.042Z,10.55
2022-07-28T07:23:12.977Z,8.30
2022-07-28T07:25:41.309Z,7.32
2022-07-28T07:28:09.101Z,7.78
2022-07-28T07:30:38.221Z,8.25
2022-07-28T07:33:07.984Z,8.32
2022-07-28T07:35:38.362Z,9.25
2022-07-28T07:38:06.302Z,8.80
2022-07-28T07:40:34.420Z,6.90
2022-07-28T07:43:02.494Z,7.72
2022-07-28T07:45:30.316Z,8.02
2022-07-28T07:47:59.459Z,8.15
2022-07-28T07:50:27.281Z,6.90
2022-07-28T07:52:55.132Z,7.63
2022-07-28T07:55:22.944Z,7.15
2022-07-28T07:57:50.985Z,10.43
2022-07-28T08:00:28.790Z,12.07
2022-07-28T08:03:00.506Z,8.10
2022-07-28T08:05:35.442Z,9.70
2022-07-28T08:08:04.938Z,11.85
2022-07-28T08:10:32.971Z,6.57
2022-07-28T08:13:00.802Z,7.75
2022-07-28T08:15:28.868Z,7.18
2022-07-28T08:17:56.662Z,6.38
2022-07-28T08:20:25.852Z,7.25
2022-07-28T08:22:55.975Z,11.10
2022-07-28T08:25:25.006Z,9.07
2022-07-28T08:27:52.867Z,10.15
2022-07-28T08:30:21.691Z,8.43
2022-07-28T08:32:56.349Z,10.70
2022-07-28T08:35:33.513Z,6.80
2022-07-28T08:38:02.892Z,7.35
2022-07-28T08:40:32.260Z,8.27
2022-07-28T08:43:04.912Z,7.38
2022-07-28T08:45:37.303Z,10.40
2022-07-28T08:48:08.870Z,9.07
2022-07-28T08:50:39.727Z,8.45
2022-07-28T08:53:08.688Z,6.10
2022-07-28T08:55:37.713Z,6.10
2022-07-28T08:58:05.822Z,7.03
2022-07-28T09:00:33.749Z,6.38
2022-07-28T09:03:04.460Z,6.53
2022-07-28T09:05:33.106Z,5.57
2022-07-28T09:08:03.950Z,7.60
2022-07-28T09:10:32.082Z,7.47
2022-07-28T09:12:59.898Z,7.32
2022-07-28T09:15:27.922Z,8.75
2022-07-28T09:17:56.630Z,7.53
2022-07-28T09:20:25.141Z,10.50
2022-07-28T09:23:01.063Z,11.07
2022-07-28T09:25:31.200Z,6.78
2022-07-28T09:28:07.734Z,11.15
2022-07-28T09:30:36.877Z,6.25
2022-07-28T09:33:43.106Z,7.63
2022-07-28T09:36:05.473Z,10.05
2022-07-28T09:38:41.769Z,6.18
2022-07-28T09:41:10.956Z,5.72
2022-07-28T09:43:40.214Z,6.63
2022-07-28T09:46:10.051Z,4.90
2022-07-28T09:48:51.356Z,5.80
2022-07-28T09:51:21.220Z,9.07
2022-07-28T09:53:49.127Z,8.55
2022-07-28T09:56:18.729Z,7.28
2022-07-28T09:58:55.649Z,4.43
2022-07-28T10:01:25.553Z,4.88
2022-07-28T10:03:57.632Z,4.88
2022-07-28T10:06:31.860Z,5.20
2022-07-28T10:09:01.681Z,4.50
2022-07-28T10:11:31.669Z,6.13
2022-07-28T10:14:04.310Z,4.18
2022-07-28T10:16:33.565Z,5.82
2022-07-28T10:19:03.498Z,4.95
2022-07-28T10:21:34.549Z,15.63
2022-07-28T10:24:06.955Z,3.60
2022-07-28T10:26:45.852Z,4.32
2022-07-28T10:29:16.201Z,5.28
2022-07-28T10:31:49.481Z,3.45
2022-07-28T10:34:25.075Z,5.65
2022-07-28T10:36:55.279Z,7.28
2022-07-28T10:39:24.984Z,4.93
2022-07-28T10:41:55.130Z,5.10
2022-07-28T10:44:23.660Z,3.67
2022-07-28T10:46:53.009Z,6.05
2022-07-28T10:49:22.032Z,4.70
2022-07-28T10:52:06.769Z,5.32
2022-07-28T10:54:50.263Z,4.43
2022-07-28T10:57:19.860Z,4.45
2022-07-28T11:00:24.451Z,5.18
2022-07-28T11:02:58.732Z,3.50
2022-07-28T11:05:29.114Z,3.58
2022-07-28T11:07:57.365Z,5.35
2022-07-28T11:10:25.613Z,5.20
2022-07-28T11:12:56.060Z,5.85
2022-07-28T11:15:33.171Z,8.63
2022-07-28T11:18:03.162Z,6.65
2022-07-28T11:21:05.379Z,3.55
2022-07-28T11:23:54.639Z,3.95
2022-07-28T11:26:36.676Z,6.10
2022-07-28T11:29:26.483Z,5.13
2022-07-28T11:32:04.497Z,5.93
2022-07-28T11:35:08.920Z,4.03
2022-07-28T11:38:08.966Z,3.78
2022-07-28T11:40:38.755Z,6.82
2022-07-28T11:43:36.141Z,4.85
2022-07-28T11:46:38.404Z,3.88
2022-07-28T11:49:27.461Z,4.63
2022-07-28T11:52:19.575Z,5.35
2022-07-28T11:54:54.431Z,5.95
2022-07-28T11:57:27.991Z,4.40
2022-07-28T11:59:58.787Z,3.10
2022-07-28T12:02:30.148Z,4.15
2022-07-28T12:05:17.919Z,4.53
2022-07-28T12:07:48.527Z,5.15
2022-07-28T12:13:28.583Z,3.75
2022-07-28T12:15:56.533Z,4.32
2022-07-28T12:18:25.731Z,4.88
2022-07-28T12:20:54.844Z,4.60
2022-07-28T12:23:44.258Z,4.20
2022-07-28T12:26:29.228Z,4.65
2022-07-28T12:29:00.081Z,4.93
2022-07-28T12:31:32.905Z,8.38
2022-07-28T12:34:02.913Z,6.30
2022-07-28T12:36:31.105Z,6.45
2022-07-28T12:38:59.719Z,6.20
2022-07-28T12:41:33.528Z,3.85
2022-07-28T12:44:02.473Z,4.95
2022-07-28T12:46:34.222Z,6.63
2022-07-28T12:49:03.609Z,3.95
2022-07-28T12:51:35.850Z,3.75
2022-07-28T12:54:05.178Z,3.75
2022-07-28T12:56:45.890Z,8.38
2022-07-28T12:59:14.387Z,5.18
2022-07-28T13:01:52.863Z,6.25
2022-07-28T13:04:41.447Z,7.10
2022-07-28T13:07:11.129Z,7.07
2022-07-28T13:09:47.106Z,5.53
2022-07-28T13:12:18.675Z,6.00
2022-07-28T13:14:51.503Z,4.35
2022-07-28T13:17:20.671Z,5.70
2022-07-28T13:19:50.431Z,4.97
2022-07-28T13:22:27.780Z,4.00
2022-07-28T13:24:57.017Z,4.90
2022-07-28T13:27:24.944Z,6.47
2022-07-28T13:29:53.057Z,5.63
2022-07-28T13:32:20.997Z,3.60
2022-07-28T13:34:50.187Z,4.82
2022-07-28T13:37:18.574Z,5.43
2022-07-28T13:39:54.161Z,6.43
2022-07-28T13:42:23.812Z,4.25
2022-07-28T13:44:51.943Z,6.63
2022-07-28T13:47:19.955Z,4.80
2022-07-28T13:49:47.832Z,3.92
2022-07-28T13:52:32.842Z,3.15
2022-07-28T13:55:05.794Z,4.60
2022-07-28T13:57:36.718Z,5.07
2022-07-28T14:00:08.008Z,5.13
2022-07-28T14:02:36.507Z,6.60
2022-07-28T14:05:05.298Z,3.15
2022-07-28T14:07:34.466Z,4.95
2022-07-28T14:10:02.365Z,4.32
2022-07-28T14:12:30.156Z,4.70
2022-07-28T14:14:57.942Z,5.22
2022-07-28T14:17:43.404Z,4.55
2022-07-28T14:20:14.761Z,4.97
2022-07-28T14:22:44.563Z,5.88
2022-07-28T14:27:49.367Z,4.93
2022-07-28T14:30:17.195Z,6.10
2022-07-28T14:32:45.006Z,4.13
2022-07-28T14:35:12.970Z,5.50
2022-07-28T14:38:15.743Z,4.53
2022-07-28T14:40:30.446Z,4.47
2022-07-28T14:42:58.246Z,4.43
2022-07-28T14:45:26.064Z,3.33
2022-07-28T14:47:55.138Z,4.82
2022-07-28T14:50:23.112Z,3.20
2022-07-28T14:52:50.953Z,3.78
2022-07-28T14:55:18.893Z,6.65
2022-07-28T14:57:54.411Z,3.03
2022-07-28T15:00:24.746Z,4.53
2022-07-28T15:02:53.255Z,5.03
2022-07-28T15:05:22.752Z,5.57
2022-07-28T15:07:52.162Z,2.97
2022-07-28T15:10:21.341Z,2.90
2022-07-28T15:12:51.900Z,3.80
2022-07-28T15:15:21.159Z,4.70
2022-07-28T15:17:48.953Z,3.78
2022-07-28T15:20:16.993Z,2.95
2022-07-28T15:22:44.792Z,13.55
2022-07-28T15:25:12.644Z,5.32
2022-07-28T15:27:45.548Z,3.33
2022-07-28T15:30:15.472Z,2.58
2022-07-28T15:32:56.837Z,2.55
2022-07-28T15:35:25.504Z,5.05
2022-07-28T15:37:53.398Z,2.63
2022-07-28T15:40:22.082Z,3.40
2022-07-28T15:42:49.880Z,3.35
2022-07-28T15:45:19.053Z,2.40
2022-07-28T15:47:46.847Z,3.95
2022-07-28T15:50:14.651Z,6.18
2022-07-28T15:52:42.457Z,2.97
2022-07-28T15:55:10.728Z,2.85
2022-07-28T15:57:38.675Z,5.15
2022-07-28T16:00:08.269Z,6.07
2022-07-28T16:02:37.563Z,2.60
2022-07-28T16:05:06.223Z,8.02
2022-07-28T16:07:35.643Z,8.82
2022-07-28T16:10:04.121Z,4.15
2022-07-28T16:12:32.164Z,5.63
2022-07-28T16:14:59.977Z,5.20
2022-07-28T16:17:27.784Z,5.75
2022-07-28T16:19:58.699Z,2.67
2022-07-28T16:22:30.456Z,5.43
2022-07-28T16:24:58.265Z,2.67
2022-07-28T16:27:26.102Z,5.50
2022-07-28T16:29:54.034Z,6.88
2022-07-28T16:32:21.860Z,6.82
2022-07-28T16:34:49.781Z,5.68
2022-07-28T16:37:19.815Z,9.75
2022-07-28T16:39:48.359Z,3.55
2022-07-28T16:42:16.754Z,6.57
2022-07-28T16:44:44.629Z,5.07
2022-07-28T16:47:12.497Z,3.33
2022-07-28T16:49:45.342Z,5.88
2022-07-28T16:52:13.954Z,3.70
2022-07-28T16:54:43.174Z,8.00
2022-07-28T16:57:11.081Z,6.63
2022-07-28T16:59:47.923Z,5.28
2022-07-28T17:02:16.491Z,7.88
2022-07-28T17:04:44.335Z,8.90
2022-07-28T17:07:12.794Z,6.88
2022-07-28T17:09:40.597Z,4.85
2022-07-28T17:12:10.224Z,3.42
2022-07-28T17:14:38.027Z,9.38
2022-07-28T17:17:06.342Z,2.50
2022-07-28T17:19:34.225Z,4.95
2022-07-28T17:22:05.189Z,3.08
2022-07-28T17:24:33.017Z,3.25
2022-07-28T17:29:49.955Z,4.75
2022-07-28T17:32:17.811Z,3.45
2022-07-28T17:34:45.678Z,4.78
2022-07-28T17:37:13.577Z,6.60
2022-07-28T17:39:41.425Z,3.83
2022-07-28T17:42:09.304Z,3.90
2022-07-28T17:44:37.634Z,4.78
2022-07-28T17:47:07.028Z,3.10
2022-07-28T17:49:34.886Z,3.35
2022-07-28T17:52:03.573Z,2.83
2022-07-28T17:54:51.357Z,5.60
2022-07-28T17:57:19.169Z,5.20
2022-07-28T17:59:51.383Z,6.57
2022-07-28T18:02:21.253Z,6.63
2022-07-28T18:04:49.548Z,4.13
2022-07-28T18:07:17.421Z,4.60
2022-07-28T18:09:45.213Z,11.65
2022-07-28T18:12:13.025Z,7.78
2022-07-28T18:14:40.814Z,9.68
2022-07-28T18:17:08.621Z,6.03
2022-07-28T18:19:42.149Z,6.15
2022-07-28T18:22:12.832Z,5.00
2022-07-28T18:24:40.612Z,11.95
2022-07-28T18:27:08.459Z,3.72
2022-07-28T18:29:38.558Z,5.07
2022-07-28T18:32:07.760Z,3.15
2022-07-28T18:34:40.324Z,2.63
2022-07-28T18:37:08.137Z,3.50
2022-07-28T18:39:35.906Z,3.17
2022-07-28T18:42:03.794Z,3.42
2022-07-28T18:44:31.585Z,4.63
2022-07-28T18:46:59.629Z,2.65
2022-07-28T18:49:27.495Z,7.75
2022-07-28T18:51:56.718Z,4.00
2022-07-28T18:54:27.628Z,6.32
2022-07-28T18:56:56.048Z,9.18
2022-07-28T18:59:23.904Z,5.43
2022-07-28T19:01:51.870Z,8.60
2022-07-28T19:04:20.165Z,7.13
2022-07-28T19:06:48.132Z,11.93
2022-07-28T19:09:17.257Z,8.00
2022-07-28T19:11:46.580Z,9.35
2022-07-28T19:14:15.230Z,8.23
2022-07-28T19:16:43.728Z,7.55
2022-07-28T19:19:11.550Z,7.40
2022-07-28T19:21:43.386Z,4.22
2022-07-28T19:24:11.862Z,6.47
2022-07-28T19:26:41.192Z,6.03
2022-07-28T19:29:09.179Z,3.25
2022-07-28T19:31:36.994Z,3.45
2022-07-28T19:34:04.991Z,7.35
2022-07-28T19:36:32.781Z,5.10
2022-07-28T19:39:00.715Z,7.22
2022-07-28T19:41:31.236Z,6.82
2022-07-28T19:44:00.434Z,5.00
2022-07-28T19:46:28.686Z,3.63
2022-07-28T19:48:56.758Z,8.40
2022-07-28T19:51:24.937Z,4.07
2022-07-28T19:53:52.756Z,5.93
2022-07-28T19:56:20.620Z,6.15
2022-07-28T19:58:49.929Z,6.07
2022-07-28T20:01:19.795Z,8.80
2022-07-28T20:04:01.128Z,4.63
2022-07-28T20:06:32.182Z,6.22
2022-07-28T20:09:00.248Z,4.68
2022-07-28T20:11:28.684Z,8.40
2022-07-28T20:13:56.497Z,6.47
2022-07-28T20:16:26.276Z,6.50
2022-07-28T20:18:54.203Z,7.57
2022-07-28T20:21:23.978Z,7.63
2022-07-28T20:23:53.633Z,4.72
2022-07-28T20:26:23.522Z,4.75
2022-07-28T20:28:51.849Z,7.10
2022-07-28T20:31:20.227Z,8.10
2022-07-28T20:33:49.600Z,7.47
2022-07-28T20:36:17.516Z,5.68
2022-07-28T20:38:45.583Z,11.32
2022-07-28T20:41:13.486Z,4.75
2022-07-28T20:43:41.268Z,5.30
2022-07-28T20:46:09.137Z,13.05
2022-07-28T20:48:37.115Z,6.45
2022-07-28T20:51:06.558Z,3.83
2022-07-28T20:53:34.464Z,4.38
2022-07-28T20:56:02.275Z,6.72
2022-07-28T20:58:30.199Z,6.20
2022-07-28T21:00:58.155Z,5.57
2022-07-28T21:03:26.123Z,5.53
2022-07-28T21:05:53.973Z,8.32
2022-07-28T21:08:24.474Z,7.18
2022-07-28T21:10:52.661Z,4.63
2022-07-28T21:13:20.486Z,8.30
2022-07-28T21:15:48.798Z,8.65
2022-07-28T21:18:17.971Z,7.30
2022-07-28T21:20:45.800Z,6.93
2022-07-28T21:23:13.621Z,6.43
2022-07-28T21:25:45.136Z,8.25
2022-07-28T21:28:31.094Z,6.82
2022-07-28T21:30:58.886Z,6.40
2022-07-28T21:33:26.723Z,6.15
2022-07-28T21:35:54.602Z,5.53
2022-07-28T21:38:23.013Z,5.45
2022-07-28T21:40:52.171Z,3.90
2022-07-28T21:43:19.986Z,6.28
2022-07-28T21:45:47.911Z,5.28
2022-07-28T21:48:19.037Z,4.30
2022-07-28T21:50:46.844Z,3.97
2022-07-28T21:53:17.241Z,3.33
2022-07-28T21:55:45.612Z,2.85
2022-07-28T21:58:16.007Z,3.50
2022-07-28T22:00:44.284Z,2.85
2022-07-28T22:03:12.374Z,2.90
2022-07-28T22:05:40.222Z,3.22
2022-07-28T22:08:09.331Z,4.55
2022-07-28T22:10:37.285Z,2.60
2022-07-28T22:13:05.235Z,2.25
2022-07-28T22:15:34.465Z,2.50
2022-07-28T22:18:02.306Z,2.85
2022-07-28T22:20:30.549Z,2.95
2022-07-28T22:22:58.377Z,2.15
2022-07-28T22:25:26.230Z,2.03
2022-07-28T22:27:54.695Z,2.05
2022-07-28T22:30:22.486Z,3.42
2022-07-28T22:32:51.642Z,2.53
2022-07-28T22:35:19.490Z,3.58
2022-07-28T22:37:47.338Z,3.08
2022-07-28T22:40:16.059Z,3.25
2022-07-28T22:42:44.912Z,1.70
2022-07-28T22:45:13.581Z,2.47
2022-07-28T22:47:41.754Z,3.72
2022-07-28T22:50:11.454Z,2.70
2022-07-28T22:52:39.385Z,2.67
2022-07-28T22:55:08.364Z,2.60
2022-07-28T22:57:36.193Z,1.95
2022-07-28T23:00:05.528Z,3.08
2022-07-28T23:02:35.506Z,2.38
2022-07-28T23:05:05.401Z,2.08
2022-07-28T23:07:53.076Z,1.70
2022-07-28T23:10:22.399Z,7.28
2022-07-28T23:12:50.318Z,2.25
2022-07-28T23:15:18.255Z,4.60
2022-07-28T23:17:46.064Z,3.53
2022-07-28T23:20:13.873Z,1.20
2022-07-28T23:22:43.054Z,2.28
2022-07-28T23:25:11.286Z,1.77
2022-07-28T23:27:39.101Z,2.53
2022-07-28T23:30:08.174Z,4.22
2022-07-28T23:32:35.975Z,1.92
2022-07-28T23:35:03.997Z,3.58
2022-07-28T23:37:34.331Z,1.67
2022-07-28T23:40:04.556Z,1.67
2022-07-28T23:42:32.335Z,1.55
2022-07-28T23:45:00.155Z,1.95
2022-07-28T23:47:27.967Z,1.40
2022-07-28T23:49:55.748Z,2.95
2022-07-28T23:52:23.584Z,2.15
2022-07-28T23:54:51.376Z,1.30
2022-07-28T23:57:20.591Z,1.73
2022-07-28T23:59:48.387Z,3.50
